sensor_id;sensor_type;location;lat;lon;timestamp;pressure;altitude;pressure_sealevel;temperature;humidity
20987;BME280;10652;50.306;8.570;2023-04-25T00:00:30;97253.41;;;7.86;98.85
20987;BME280;10652;50.306;8.570;2023-04-25T00:04:32;97251.94;;;7.80;98.92
20987;BME280;10652;50.306;8.570;2023-04-25T00:08:36;97251.25;;;7.76;100.00
20987;BME280;10652;50.306;8.570;2023-04-25T00:12:38;97261.47;;;7.81;100.00
20987;BME280;10652;50.306;8.570;2023-04-25T00:16:40;97256.84;;;7.86;100.00
20987;BME280;10652;50.306;8.570;2023-04-25T00:20:43;97252.69;;;7.82;100.00
20987;BME280;10652;50.306;8.570;2023-04-25T00:24:48;97258.94;;;7.79;99.91
20987;BME280;10652;50.306;8.570;2023-04-25T00:28:50;97245.38;;;7.71;99.86
20987;BME280;10652;50.306;8.570;2023-04-25T00:32:52;97249.28;;;7.63;99.56
20987;BME280;10652;50.306;8.570;2023-04-25T00:36:55;97250.34;;;7.59;99.65
20987;BME280;10652;50.306;8.570;2023-04-25T00:40:57;97260.03;;;7.57;99.65
20987;BME280;10652;50.306;8.570;2023-04-25T00:45:00;97264.63;;;7.52;99.61
20987;BME280;10652;50.306;8.570;2023-04-25T00:49:02;97252.47;;;7.51;99.22
20987;BME280;10652;50.306;8.570;2023-04-25T00:53:04;97260.41;;;7.49;98.80
20987;BME280;10652;50.306;8.570;2023-04-25T00:57:07;97250.22;;;7.43;98.59
20987;BME280;10652;50.306;8.570;2023-04-25T01:01:10;97258.91;;;7.44;97.76
20987;BME280;10652;50.306;8.570;2023-04-25T01:05:12;97254.13;;;7.34;96.72
20987;BME280;10652;50.306;8.570;2023-04-25T01:09:15;97249.97;;;7.30;96.51
20987;BME280;10652;50.306;8.570;2023-04-25T01:13:17;97255.47;;;7.24;95.50
20987;BME280;10652;50.306;8.570;2023-04-25T01:17:20;97253.91;;;7.20;94.91
20987;BME280;10652;50.306;8.570;2023-04-25T01:21:24;97248.00;;;7.17;95.19
20987;BME280;10652;50.306;8.570;2023-04-25T01:25:30;97247.41;;;7.10;93.75
20987;BME280;10652;50.306;8.570;2023-04-25T01:29:33;97245.94;;;7.05;93.00
20987;BME280;10652;50.306;8.570;2023-04-25T01:33:37;97248.84;;;6.99;91.84
20987;BME280;10652;50.306;8.570;2023-04-25T01:37:40;97242.19;;;6.91;91.65
20987;BME280;10652;50.306;8.570;2023-04-25T01:41:43;97240.63;;;6.87;91.87
20987;BME280;10652;50.306;8.570;2023-04-25T01:45:46;97245.84;;;6.87;91.79
20987;BME280;10652;50.306;8.570;2023-04-25T01:49:49;97240.91;;;6.81;92.24
20987;BME280;10652;50.306;8.570;2023-04-25T01:53:52;97243.44;;;6.83;92.48
20987;BME280;10652;50.306;8.570;2023-04-25T01:57:54;97242.59;;;6.82;92.60
20987;BME280;10652;50.306;8.570;2023-04-25T02:02:05;97241.84;;;6.80;93.39
20987;BME280;10652;50.306;8.570;2023-04-25T02:06:09;97241.69;;;6.83;93.64
20987;BME280;10652;50.306;8.570;2023-04-25T02:10:16;97243.59;;;6.80;93.31
20987;BME280;10652;50.306;8.570;2023-04-25T02:14:29;97246.25;;;6.78;93.19
20987;BME280;10652;50.306;8.570;2023-04-25T02:18:37;97250.72;;;6.76;93.64
20987;BME280;10652;50.306;8.570;2023-04-25T02:22:41;97246.53;;;6.72;93.83
20987;BME280;10652;50.306;8.570;2023-04-25T02:26:44;97248.38;;;6.70;94.43
20987;BME280;10652;50.306;8.570;2023-04-25T02:30:47;97250.97;;;6.70;94.70
20987;BME280;10652;50.306;8.570;2023-04-25T02:34:49;97252.03;;;6.66;94.68
20987;BME280;10652;50.306;8.570;2023-04-25T02:38:51;97254.91;;;6.60;93.38
20987;BME280;10652;50.306;8.570;2023-04-25T02:42:55;97244.22;;;6.46;92.95
20987;BME280;10652;50.306;8.570;2023-04-25T02:46:57;97256.75;;;6.38;92.33
20987;BME280;10652;50.306;8.570;2023-04-25T02:50:59;97253.09;;;6.22;91.07
20987;BME280;10652;50.306;8.570;2023-04-25T02:55:01;97242.25;;;6.11;90.97
20987;BME280;10652;50.306;8.570;2023-04-25T02:59:05;97253.06;;;6.01;90.82
20987;BME280;10652;50.306;8.570;2023-04-25T03:03:07;97245.66;;;5.91;90.92
20987;BME280;10652;50.306;8.570;2023-04-25T03:07:10;97252.25;;;5.79;90.99
20987;BME280;10652;50.306;8.570;2023-04-25T03:11:12;97254.06;;;5.77;94.68
20987;BME280;10652;50.306;8.570;2023-04-25T03:15:16;97259.53;;;5.71;92.68
20987;BME280;10652;50.306;8.570;2023-04-25T03:19:18;97260.13;;;5.56;92.97
20987;BME280;10652;50.306;8.570;2023-04-25T03:23:20;97262.34;;;5.45;93.81
20987;BME280;10652;50.306;8.570;2023-04-25T03:27:23;97246.50;;;5.28;94.27
20987;BME280;10652;50.306;8.570;2023-04-25T03:31:25;97257.22;;;5.20;95.21
20987;BME280;10652;50.306;8.570;2023-04-25T03:35:28;97262.72;;;5.12;96.31
20987;BME280;10652;50.306;8.570;2023-04-25T03:39:30;97272.78;;;4.98;96.96
20987;BME280;10652;50.306;8.570;2023-04-25T03:43:33;97266.06;;;4.93;98.01
20987;BME280;10652;50.306;8.570;2023-04-25T03:47:40;97273.22;;;4.86;98.50
20987;BME280;10652;50.306;8.570;2023-04-25T03:51:42;97284.91;;;4.76;98.94
20987;BME280;10652;50.306;8.570;2023-04-25T03:55:44;97286.00;;;4.69;99.35
20987;BME280;10652;50.306;8.570;2023-04-25T03:59:47;97282.63;;;4.67;99.84
20987;BME280;10652;50.306;8.570;2023-04-25T04:03:50;97288.59;;;4.69;99.60
20987;BME280;10652;50.306;8.570;2023-04-25T04:07:54;97288.78;;;4.64;99.09
20987;BME280;10652;50.306;8.570;2023-04-25T04:11:56;97288.91;;;4.61;98.73
20987;BME280;10652;50.306;8.570;2023-04-25T04:15:59;97289.00;;;4.58;98.90
20987;BME280;10652;50.306;8.570;2023-04-25T04:20:01;97298.50;;;4.59;98.68
20987;BME280;10652;50.306;8.570;2023-04-25T04:24:06;97296.81;;;4.58;98.60
20987;BME280;10652;50.306;8.570;2023-04-25T04:28:21;97307.22;;;4.58;98.93
20987;BME280;10652;50.306;8.570;2023-04-25T04:32:29;97308.72;;;4.64;99.41
20987;BME280;10652;50.306;8.570;2023-04-25T04:36:32;97298.25;;;4.67;98.87
20987;BME280;10652;50.306;8.570;2023-04-25T04:40:35;97306.72;;;4.72;99.11
20987;BME280;10652;50.306;8.570;2023-04-25T04:44:44;97306.63;;;4.75;97.44
20987;BME280;10652;50.306;8.570;2023-04-25T04:49:06;97317.00;;;4.75;97.03
20987;BME280;10652;50.306;8.570;2023-04-25T04:53:14;97314.69;;;4.67;95.22
20987;BME280;10652;50.306;8.570;2023-04-25T04:57:32;97325.19;;;4.89;96.47
20987;BME280;10652;50.306;8.570;2023-04-25T05:01:46;97333.94;;;5.10;94.15
20987;BME280;10652;50.306;8.570;2023-04-25T05:06:00;97334.81;;;5.34;92.52
20987;BME280;10652;50.306;8.570;2023-04-25T05:10:20;97339.63;;;5.44;91.37
20987;BME280;10652;50.306;8.570;2023-04-25T05:14:31;97352.38;;;5.50;91.63
20987;BME280;10652;50.306;8.570;2023-04-25T05:18:47;97343.50;;;5.56;90.94
20987;BME280;10652;50.306;8.570;2023-04-25T05:23:18;97347.28;;;5.71;89.66
20987;BME280;10652;50.306;8.570;2023-04-25T05:27:41;97343.75;;;5.93;88.22
20987;BME280;10652;50.306;8.570;2023-04-25T05:32:02;97332.19;;;6.83;88.16
20987;BME280;10652;50.306;8.570;2023-04-25T05:36:05;97336.56;;;10.28;79.61
20987;BME280;10652;50.306;8.570;2023-04-25T05:40:08;97339.97;;;11.18;61.89
20987;BME280;10652;50.306;8.570;2023-04-25T05:44:30;97348.88;;;9.96;64.28
20987;BME280;10652;50.306;8.570;2023-04-25T05:48:54;97347.50;;;11.66;63.52
20987;BME280;10652;50.306;8.570;2023-04-25T05:53:11;97346.97;;;13.95;52.56
20987;BME280;10652;50.306;8.570;2023-04-25T05:57:23;97349.50;;;12.31;52.32
20987;BME280;10652;50.306;8.570;2023-04-25T06:01:26;97356.13;;;10.22;55.19
20987;BME280;10652;50.306;8.570;2023-04-25T06:05:29;97348.75;;;8.85;59.65
20987;BME280;10652;50.306;8.570;2023-04-25T06:09:31;97359.16;;;8.16;64.16
20987;BME280;10652;50.306;8.570;2023-04-25T06:13:33;97359.66;;;7.87;66.33
20987;BME280;10652;50.306;8.570;2023-04-25T06:17:35;97356.38;;;7.64;67.57
20987;BME280;10652;50.306;8.570;2023-04-25T06:21:43;97353.03;;;7.42;69.18
20987;BME280;10652;50.306;8.570;2023-04-25T06:25:45;97356.72;;;7.38;70.49
20987;BME280;10652;50.306;8.570;2023-04-25T06:29:47;97357.13;;;7.29;71.43
20987;BME280;10652;50.306;8.570;2023-04-25T06:33:50;97359.69;;;7.30;71.84
20987;BME280;10652;50.306;8.570;2023-04-25T06:37:53;97363.63;;;7.95;71.33
20987;BME280;10652;50.306;8.570;2023-04-25T06:41:57;97358.06;;;8.39;67.50
20987;BME280;10652;50.306;8.570;2023-04-25T06:46:28;97362.25;;;9.43;67.46
20987;BME280;10652;50.306;8.570;2023-04-25T06:50:33;97367.69;;;11.38;58.67
20987;BME280;10652;50.306;8.570;2023-04-25T06:54:36;97362.50;;;11.93;56.52
20987;BME280;10652;50.306;8.570;2023-04-25T06:58:51;97374.97;;;12.03;53.36
20987;BME280;10652;50.306;8.570;2023-04-25T07:03:02;97380.81;;;11.94;52.34
20987;BME280;10652;50.306;8.570;2023-04-25T07:07:05;97391.06;;;10.84;53.64
20987;BME280;10652;50.306;8.570;2023-04-25T07:11:14;97398.63;;;9.82;57.05
20987;BME280;10652;50.306;8.570;2023-04-25T07:15:16;97400.88;;;8.89;59.67
20987;BME280;10652;50.306;8.570;2023-04-25T07:19:21;97401.53;;;8.58;62.88
20987;BME280;10652;50.306;8.570;2023-04-25T07:23:23;97418.38;;;8.72;70.17
20987;BME280;10652;50.306;8.570;2023-04-25T07:27:26;97420.59;;;8.79;65.29
20987;BME280;10652;50.306;8.570;2023-04-25T07:31:33;97416.97;;;8.82;65.66
20987;BME280;10652;50.306;8.570;2023-04-25T07:35:35;97417.44;;;8.90;65.29
20987;BME280;10652;50.306;8.570;2023-04-25T07:39:37;97430.06;;;8.82;65.48
20987;BME280;10652;50.306;8.570;2023-04-25T07:43:40;97424.69;;;8.85;65.84
20987;BME280;10652;50.306;8.570;2023-04-25T07:47:42;97428.91;;;8.87;64.44
20987;BME280;10652;50.306;8.570;2023-04-25T07:51:44;97438.06;;;8.79;65.66
20987;BME280;10652;50.306;8.570;2023-04-25T07:55:50;97444.41;;;8.75;66.54
20987;BME280;10652;50.306;8.570;2023-04-25T07:59:53;97442.09;;;8.50;64.47
20987;BME280;10652;50.306;8.570;2023-04-25T08:03:56;97450.19;;;8.45;66.92
20987;BME280;10652;50.306;8.570;2023-04-25T08:08:18;97451.78;;;8.66;66.31
20987;BME280;10652;50.306;8.570;2023-04-25T08:12:21;97452.75;;;8.64;63.90
20987;BME280;10652;50.306;8.570;2023-04-25T08:16:25;97455.59;;;8.59;65.02
20987;BME280;10652;50.306;8.570;2023-04-25T08:20:27;97450.94;;;8.66;63.58
20987;BME280;10652;50.306;8.570;2023-04-25T08:24:32;97459.03;;;8.79;63.85
20987;BME280;10652;50.306;8.570;2023-04-25T08:28:34;97466.88;;;8.79;62.81
20987;BME280;10652;50.306;8.570;2023-04-25T08:32:37;97462.50;;;8.96;60.89
20987;BME280;10652;50.306;8.570;2023-04-25T08:36:59;97464.91;;;9.01;59.97
20987;BME280;10652;50.306;8.570;2023-04-25T08:41:14;97474.47;;;9.02;60.61
20987;BME280;10652;50.306;8.570;2023-04-25T08:45:17;97476.31;;;9.17;61.15
20987;BME280;10652;50.306;8.570;2023-04-25T08:49:19;97481.91;;;9.09;60.82
20987;BME280;10652;50.306;8.570;2023-04-25T08:53:25;97495.19;;;9.06;60.57
20987;BME280;10652;50.306;8.570;2023-04-25T08:57:31;97493.94;;;9.13;57.77
20987;BME280;10652;50.306;8.570;2023-04-25T09:01:34;97496.34;;;9.35;58.51
20987;BME280;10652;50.306;8.570;2023-04-25T09:05:37;97494.16;;;9.78;57.30
20987;BME280;10652;50.306;8.570;2023-04-25T09:09:39;97506.09;;;9.66;54.80
20987;BME280;10652;50.306;8.570;2023-04-25T09:13:42;97510.06;;;9.75;55.39
20987;BME280;10652;50.306;8.570;2023-04-25T09:18:07;97509.41;;;9.70;53.11
20987;BME280;10652;50.306;8.570;2023-04-25T09:22:17;97510.31;;;9.69;52.77
20987;BME280;10652;50.306;8.570;2023-04-25T09:26:20;97512.03;;;9.87;52.53
20987;BME280;10652;50.306;8.570;2023-04-25T09:30:33;97518.97;;;9.88;51.29
20987;BME280;10652;50.306;8.570;2023-04-25T09:34:43;97520.31;;;9.79;52.74
20987;BME280;10652;50.306;8.570;2023-04-25T09:38:46;97533.94;;;9.69;52.37
20987;BME280;10652;50.306;8.570;2023-04-25T09:43:22;97548.78;;;9.35;53.67
20987;BME280;10652;50.306;8.570;2023-04-25T09:47:26;97565.22;;;9.03;57.11
20987;BME280;10652;50.306;8.570;2023-04-25T09:51:29;97577.38;;;8.49;61.03
20987;BME280;10652;50.306;8.570;2023-04-25T09:55:34;97579.09;;;8.11;62.93
20987;BME280;10652;50.306;8.570;2023-04-25T09:59:39;97588.97;;;8.05;65.02
20987;BME280;10652;50.306;8.570;2023-04-25T10:03:41;97592.72;;;8.19;64.97
20987;BME280;10652;50.306;8.570;2023-04-25T10:08:12;97595.34;;;8.38;63.55
20987;BME280;10652;50.306;8.570;2023-04-25T10:12:14;97588.78;;;8.48;62.51
20987;BME280;10652;50.306;8.570;2023-04-25T10:16:17;97591.41;;;8.67;62.79
20987;BME280;10652;50.306;8.570;2023-04-25T10:20:19;97601.25;;;8.81;59.87
20987;BME280;10652;50.306;8.570;2023-04-25T10:24:21;97601.72;;;8.89;59.79
20987;BME280;10652;50.306;8.570;2023-04-25T10:28:24;97590.81;;;9.15;60.92
20987;BME280;10652;50.306;8.570;2023-04-25T10:32:26;97590.84;;;9.49;57.29
20987;BME280;10652;50.306;8.570;2023-04-25T10:36:32;97578.22;;;9.57;54.93
20987;BME280;10652;50.306;8.570;2023-04-25T10:40:34;97584.09;;;9.80;52.33
20987;BME280;10652;50.306;8.570;2023-04-25T10:44:37;97589.00;;;9.69;50.58
20987;BME280;10652;50.306;8.570;2023-04-25T10:48:45;97591.63;;;9.51;50.03
20987;BME280;10652;50.306;8.570;2023-04-25T10:52:48;97605.41;;;9.21;49.84
20987;BME280;10652;50.306;8.570;2023-04-25T10:56:51;97603.47;;;9.24;50.11
20987;BME280;10652;50.306;8.570;2023-04-25T11:00:53;97603.09;;;9.32;50.43
20987;BME280;10652;50.306;8.570;2023-04-25T11:04:59;97603.94;;;9.85;49.46
20987;BME280;10652;50.306;8.570;2023-04-25T11:09:01;97597.28;;;9.78;47.48
20987;BME280;10652;50.306;8.570;2023-04-25T11:13:04;97601.09;;;9.90;48.51
20987;BME280;10652;50.306;8.570;2023-04-25T11:17:06;97590.78;;;10.02;47.88
20987;BME280;10652;50.306;8.570;2023-04-25T11:21:10;97593.97;;;10.25;47.46
20987;BME280;10652;50.306;8.570;2023-04-25T11:25:14;97589.22;;;10.48;47.41
20987;BME280;10652;50.306;8.570;2023-04-25T11:29:17;97592.19;;;10.89;45.94
20987;BME280;10652;50.306;8.570;2023-04-25T11:33:23;97594.13;;;11.02;46.03
20987;BME280;10652;50.306;8.570;2023-04-25T11:37:26;97602.69;;;11.05;46.41
20987;BME280;10652;50.306;8.570;2023-04-25T11:41:28;97601.75;;;10.59;45.90
20987;BME280;10652;50.306;8.570;2023-04-25T11:45:32;97613.69;;;10.16;46.92
20987;BME280;10652;50.306;8.570;2023-04-25T11:49:35;97620.72;;;9.81;48.18
20987;BME280;10652;50.306;8.570;2023-04-25T11:53:41;97634.97;;;9.58;48.64
20987;BME280;10652;50.306;8.570;2023-04-25T11:57:44;97643.16;;;9.17;49.58
20987;BME280;10652;50.306;8.570;2023-04-25T12:01:49;97641.72;;;8.92;51.07
20987;BME280;10652;50.306;8.570;2023-04-25T12:05:51;97658.69;;;8.84;51.23
20987;BME280;10652;50.306;8.570;2023-04-25T12:09:54;97657.00;;;8.83;51.31
20987;BME280;10652;50.306;8.570;2023-04-25T12:14:01;97652.75;;;8.99;51.54
20987;BME280;10652;50.306;8.570;2023-04-25T12:18:03;97640.25;;;9.23;50.74
20987;BME280;10652;50.306;8.570;2023-04-25T12:22:22;97645.31;;;9.44;50.13
20987;BME280;10652;50.306;8.570;2023-04-25T12:26:24;97633.41;;;9.37;49.78
20987;BME280;10652;50.306;8.570;2023-04-25T12:30:27;97635.56;;;9.29;49.39
20987;BME280;10652;50.306;8.570;2023-04-25T12:34:31;97631.72;;;9.36;47.74
20987;BME280;10652;50.306;8.570;2023-04-25T12:38:38;97634.00;;;9.95;49.13
20987;BME280;10652;50.306;8.570;2023-04-25T12:42:42;97625.06;;;10.32;46.88
20987;BME280;10652;50.306;8.570;2023-04-25T12:46:44;97634.59;;;10.51;47.44
20987;BME280;10652;50.306;8.570;2023-04-25T12:50:47;97643.88;;;10.40;46.05
20987;BME280;10652;50.306;8.570;2023-04-25T12:54:51;97653.34;;;10.27;46.62
20987;BME280;10652;50.306;8.570;2023-04-25T12:58:53;97653.91;;;9.99;45.82
20987;BME280;10652;50.306;8.570;2023-04-25T13:02:55;97665.84;;;10.22;46.11
20987;BME280;10652;50.306;8.570;2023-04-25T13:06:57;97666.56;;;10.09;45.51
20987;BME280;10652;50.306;8.570;2023-04-25T13:11:00;97661.25;;;9.93;46.09
20987;BME280;10652;50.306;8.570;2023-04-25T13:15:02;97667.19;;;9.96;46.69
20987;BME280;10652;50.306;8.570;2023-04-25T13:19:04;97663.81;;;9.94;45.72
20987;BME280;10652;50.306;8.570;2023-04-25T13:23:07;97664.34;;;10.01;49.73
20987;BME280;10652;50.306;8.570;2023-04-25T13:27:09;97660.19;;;10.47;50.76
20987;BME280;10652;50.306;8.570;2023-04-25T13:31:11;97670.28;;;10.55;47.53
20987;BME280;10652;50.306;8.570;2023-04-25T13:35:13;97663.38;;;10.36;45.90
20987;BME280;10652;50.306;8.570;2023-04-25T13:39:15;97664.59;;;10.46;45.44
20987;BME280;10652;50.306;8.570;2023-04-25T13:43:21;97662.28;;;10.40;45.06
20987;BME280;10652;50.306;8.570;2023-04-25T13:47:26;97668.53;;;10.38;43.78
20987;BME280;10652;50.306;8.570;2023-04-25T13:51:29;97673.25;;;10.48;43.08
20987;BME280;10652;50.306;8.570;2023-04-25T13:55:34;97671.22;;;10.54;42.95
20987;BME280;10652;50.306;8.570;2023-04-25T13:59:39;97682.03;;;10.47;41.75
20987;BME280;10652;50.306;8.570;2023-04-25T14:03:42;97682.28;;;10.43;42.58
20987;BME280;10652;50.306;8.570;2023-04-25T14:07:44;97687.03;;;10.19;42.71
20987;BME280;10652;50.306;8.570;2023-04-25T14:11:46;97689.41;;;10.24;43.75
20987;BME280;10652;50.306;8.570;2023-04-25T14:15:49;97680.06;;;10.35;43.84
20987;BME280;10652;50.306;8.570;2023-04-25T14:19:52;97689.47;;;10.39;43.92
20987;BME280;10652;50.306;8.570;2023-04-25T14:23:54;97692.66;;;10.29;44.08
20987;BME280;10652;50.306;8.570;2023-04-25T14:27:56;97699.69;;;10.28;44.44
20987;BME280;10652;50.306;8.570;2023-04-25T14:31:58;97710.34;;;10.25;44.96
20987;BME280;10652;50.306;8.570;2023-04-25T14:36:01;97716.28;;;10.12;43.87
20987;BME280;10652;50.306;8.570;2023-04-25T14:40:03;97708.78;;;10.04;43.20
20987;BME280;10652;50.306;8.570;2023-04-25T14:44:06;97714.34;;;9.98;43.89
20987;BME280;10652;50.306;8.570;2023-04-25T14:48:08;97717.72;;;10.00;43.98
20987;BME280;10652;50.306;8.570;2023-04-25T14:52:10;97715.75;;;10.05;43.88
20987;BME280;10652;50.306;8.570;2023-04-25T14:56:12;97719.13;;;10.24;44.19
20987;BME280;10652;50.306;8.570;2023-04-25T15:00:15;97716.22;;;10.30;43.57
20987;BME280;10652;50.306;8.570;2023-04-25T15:04:18;97715.44;;;10.28;42.89
20987;BME280;10652;50.306;8.570;2023-04-25T15:08:20;97725.19;;;10.26;44.11
20987;BME280;10652;50.306;8.570;2023-04-25T15:12:22;97720.06;;;10.23;44.10
20987;BME280;10652;50.306;8.570;2023-04-25T15:16:25;97723.31;;;10.28;44.21
20987;BME280;10652;50.306;8.570;2023-04-25T15:20:28;97726.38;;;10.36;45.35
20987;BME280;10652;50.306;8.570;2023-04-25T15:24:30;97723.44;;;10.42;45.76
20987;BME280;10652;50.306;8.570;2023-04-25T15:28:32;97726.63;;;10.49;44.92
20987;BME280;10652;50.306;8.570;2023-04-25T15:32:35;97725.16;;;10.43;44.45
20987;BME280;10652;50.306;8.570;2023-04-25T15:36:37;97730.19;;;10.31;43.79
20987;BME280;10652;50.306;8.570;2023-04-25T15:40:39;97729.00;;;10.19;44.44
20987;BME280;10652;50.306;8.570;2023-04-25T15:44:42;97740.44;;;10.18;44.54
20987;BME280;10652;50.306;8.570;2023-04-25T15:48:44;97737.81;;;10.18;44.96
20987;BME280;10652;50.306;8.570;2023-04-25T15:52:48;97731.56;;;10.21;44.74
20987;BME280;10652;50.306;8.570;2023-04-25T15:56:50;97739.91;;;10.12;44.60
20987;BME280;10652;50.306;8.570;2023-04-25T16:00:52;97742.75;;;9.90;45.30
20987;BME280;10652;50.306;8.570;2023-04-25T16:04:56;97748.22;;;9.67;45.28
20987;BME280;10652;50.306;8.570;2023-04-25T16:08:58;97744.78;;;9.47;45.90
20987;BME280;10652;50.306;8.570;2023-04-25T16:13:01;97750.63;;;9.35;45.07
20987;BME280;10652;50.306;8.570;2023-04-25T16:17:03;97745.88;;;9.25;43.72
20987;BME280;10652;50.306;8.570;2023-04-25T16:21:05;97744.16;;;9.05;43.09
20987;BME280;10652;50.306;8.570;2023-04-25T16:25:08;97739.06;;;9.02;43.89
20987;BME280;10652;50.306;8.570;2023-04-25T16:29:10;97737.31;;;9.21;44.39
20987;BME280;10652;50.306;8.570;2023-04-25T16:33:13;97740.69;;;9.42;45.34
20987;BME280;10652;50.306;8.570;2023-04-25T16:37:16;97741.53;;;9.42;45.99
20987;BME280;10652;50.306;8.570;2023-04-25T16:41:18;97751.75;;;9.30;45.79
20987;BME280;10652;50.306;8.570;2023-04-25T16:45:20;97744.53;;;9.16;45.98
20987;BME280;10652;50.306;8.570;2023-04-25T16:49:23;97746.34;;;9.14;45.77
20987;BME280;10652;50.306;8.570;2023-04-25T16:53:25;97753.72;;;9.25;46.09
20987;BME280;10652;50.306;8.570;2023-04-25T16:57:27;97751.31;;;9.39;45.98
20987;BME280;10652;50.306;8.570;2023-04-25T17:01:29;97755.44;;;9.44;45.18
20987;BME280;10652;50.306;8.570;2023-04-25T17:05:32;97756.81;;;9.51;44.56
20987;BME280;10652;50.306;8.570;2023-04-25T17:09:35;97758.75;;;9.48;44.86
20987;BME280;10652;50.306;8.570;2023-04-25T17:13:37;97768.53;;;9.44;44.28
20987;BME280;10652;50.306;8.570;2023-04-25T17:17:39;97759.94;;;9.41;43.78
20987;BME280;10652;50.306;8.570;2023-04-25T17:21:42;97766.91;;;9.23;44.21
20987;BME280;10652;50.306;8.570;2023-04-25T17:25:44;97770.84;;;9.13;45.31
20987;BME280;10652;50.306;8.570;2023-04-25T17:29:47;97775.53;;;9.06;46.21
20987;BME280;10652;50.306;8.570;2023-04-25T17:33:49;97781.63;;;9.07;46.27
20987;BME280;10652;50.306;8.570;2023-04-25T17:37:51;97793.38;;;8.98;46.05
20987;BME280;10652;50.306;8.570;2023-04-25T17:41:53;97799.94;;;8.88;46.08
20987;BME280;10652;50.306;8.570;2023-04-25T17:45:55;97804.78;;;8.77;45.56
20987;BME280;10652;50.306;8.570;2023-04-25T17:49:57;97799.38;;;8.61;45.09
20987;BME280;10652;50.306;8.570;2023-04-25T17:53:59;97811.34;;;8.47;44.33
20987;BME280;10652;50.306;8.570;2023-04-25T17:58:01;97810.88;;;8.37;44.46
20987;BME280;10652;50.306;8.570;2023-04-25T18:02:04;97825.38;;;8.24;44.77
20987;BME280;10652;50.306;8.570;2023-04-25T18:06:06;97815.41;;;8.12;45.22
20987;BME280;10652;50.306;8.570;2023-04-25T18:10:09;97830.75;;;7.99;45.09
20987;BME280;10652;50.306;8.570;2023-04-25T18:14:13;97837.53;;;7.81;45.49
20987;BME280;10652;50.306;8.570;2023-04-25T18:18:15;97843.97;;;7.73;45.84
20987;BME280;10652;50.306;8.570;2023-04-25T18:22:21;97842.56;;;7.64;46.31
20987;BME280;10652;50.306;8.570;2023-04-25T18:26:23;97847.13;;;7.59;45.99
20987;BME280;10652;50.306;8.570;2023-04-25T18:30:25;97855.41;;;7.49;45.91
20987;BME280;10652;50.306;8.570;2023-04-25T18:34:27;97861.13;;;7.35;46.16
20987;BME280;10652;50.306;8.570;2023-04-25T18:38:29;97861.56;;;7.23;46.34
20987;BME280;10652;50.306;8.570;2023-04-25T18:42:37;97865.13;;;7.22;46.54
20987;BME280;10652;50.306;8.570;2023-04-25T18:46:39;97875.59;;;7.20;47.03
20987;BME280;10652;50.306;8.570;2023-04-25T18:50:44;97876.69;;;7.15;47.04
20987;BME280;10652;50.306;8.570;2023-04-25T18:54:46;97885.66;;;7.08;47.59
20987;BME280;10652;50.306;8.570;2023-04-25T18:58:49;97893.69;;;7.02;47.80
20987;BME280;10652;50.306;8.570;2023-04-25T19:02:55;97901.72;;;6.96;48.02
20987;BME280;10652;50.306;8.570;2023-04-25T19:07:04;97900.78;;;6.98;48.31
20987;BME280;10652;50.306;8.570;2023-04-25T19:11:06;97914.91;;;6.92;48.49
20987;BME280;10652;50.306;8.570;2023-04-25T19:15:21;97913.50;;;6.82;48.45
20987;BME280;10652;50.306;8.570;2023-04-25T19:19:24;97920.75;;;6.74;48.71
20987;BME280;10652;50.306;8.570;2023-04-25T19:23:28;97917.59;;;6.65;49.06
20987;BME280;10652;50.306;8.570;2023-04-25T19:27:32;97927.28;;;6.61;49.55
20987;BME280;10652;50.306;8.570;2023-04-25T19:31:35;97928.31;;;6.57;49.97
20987;BME280;10652;50.306;8.570;2023-04-25T19:35:38;97934.53;;;6.53;50.15
20987;BME280;10652;50.306;8.570;2023-04-25T19:39:40;97938.97;;;6.49;50.43
20987;BME280;10652;50.306;8.570;2023-04-25T19:43:42;97933.22;;;6.40;50.48
20987;BME280;10652;50.306;8.570;2023-04-25T19:47:44;97935.13;;;6.35;51.25
20987;BME280;10652;50.306;8.570;2023-04-25T19:51:47;97937.63;;;6.38;51.33
20987;BME280;10652;50.306;8.570;2023-04-25T19:55:49;97936.81;;;6.36;52.25
20987;BME280;10652;50.306;8.570;2023-04-25T19:59:51;97934.97;;;6.39;51.93
20987;BME280;10652;50.306;8.570;2023-04-25T20:03:53;97937.59;;;6.39;51.93
20987;BME280;10652;50.306;8.570;2023-04-25T20:07:56;97944.44;;;6.42;52.26
20987;BME280;10652;50.306;8.570;2023-04-25T20:11:58;97950.56;;;6.41;52.56
20987;BME280;10652;50.306;8.570;2023-04-25T20:16:00;97945.16;;;6.47;52.91
20987;BME280;10652;50.306;8.570;2023-04-25T20:20:04;97947.72;;;6.48;53.11
20987;BME280;10652;50.306;8.570;2023-04-25T20:24:07;97958.78;;;6.55;53.36
20987;BME280;10652;50.306;8.570;2023-04-25T20:28:09;97954.44;;;6.56;53.25
20987;BME280;10652;50.306;8.570;2023-04-25T20:32:11;97944.03;;;6.54;53.48
20987;BME280;10652;50.306;8.570;2023-04-25T20:36:13;97955.16;;;6.61;53.82
20987;BME280;10652;50.306;8.570;2023-04-25T20:40:16;97959.81;;;6.51;53.98
20987;BME280;10652;50.306;8.570;2023-04-25T20:44:18;97955.78;;;6.41;54.44
20987;BME280;10652;50.306;8.570;2023-04-25T20:48:23;97963.03;;;6.31;55.06
20987;BME280;10652;50.306;8.570;2023-04-25T20:52:25;97958.94;;;6.23;55.18
20987;BME280;10652;50.306;8.570;2023-04-25T20:56:27;97970.03;;;6.01;56.27
20987;BME280;10652;50.306;8.570;2023-04-25T21:00:29;97969.06;;;5.76;57.19
20987;BME280;10652;50.306;8.570;2023-04-25T21:04:31;97966.59;;;5.72;58.26
20987;BME280;10652;50.306;8.570;2023-04-25T21:08:34;97971.34;;;5.57;58.54
20987;BME280;10652;50.306;8.570;2023-04-25T21:12:36;97969.19;;;5.41;59.64
20987;BME280;10652;50.306;8.570;2023-04-25T21:16:38;97976.56;;;5.25;60.02
20987;BME280;10652;50.306;8.570;2023-04-25T21:20:41;97980.06;;;4.92;60.56
20987;BME280;10652;50.306;8.570;2023-04-25T21:24:43;97982.66;;;4.58;61.96
20987;BME280;10652;50.306;8.570;2023-04-25T21:28:45;97989.75;;;4.50;63.22
20987;BME280;10652;50.306;8.570;2023-04-25T21:32:48;97990.28;;;4.64;63.43
20987;BME280;10652;50.306;8.570;2023-04-25T21:36:53;97978.22;;;4.61;63.43
20987;BME280;10652;50.306;8.570;2023-04-25T21:40:55;97978.34;;;4.57;63.24
20987;BME280;10652;50.306;8.570;2023-04-25T21:44:57;97982.03;;;4.47;63.19